El Centro Naf Airport
KNJK : rendu visible

Aérodrome :











RETROUVEZ-NOUS SUR...

 
LOGIN :

S'inscrire | Disclaimer

   EN    FR    IT 

 









Légende :    VFR   VFR Marginal   IFR   IFR Intensif   IFR Très Intensif
Visi : 
Plafond : 
>= 8 km
>= 3000ft
5 à 8 km
1000 à 3000 ft
1500m à 5 km
500 à 1000 ft
800 à 1500m
200 à 500 ft
< 800m
< 200 ft
Symboles :   Orages  Brouillard  Fortes neiges  Fortes précipitations  Vent > 20 kt






- Altitude de l'aérodrome : -42 ft


KNJK - El Centro Naf

DERNIER METAR :
  • 170956Z AUTO 24006KT 10SM CLR 13/M02 A2996 RMK AO2 SLP160 T01281022 $

METARs EXPIRÉS :
  • 170856Z AUTO 25005KT 10SM CLR 14/M02 A2996 RMK AO2 SLP162 T01441017 53001 $
  • 170756Z AUTO 27005KT 10SM CLR 16/M03 A2996 RMK AO2 SLP161 T01561028 403170122 $

TAF TAF KNJK
Valide du 16 à 23h jusqu'au 17 à 23h UTC


1623/1723 33006KT 9999 FEW250 QNH2985INS
FM170100 VRB06KT 9999 FEW250 QNH2988INS
FM171800 31006KT 9999 FEW250 QNH2998INS LAST NO AMDS AFT 1623 NEXT 1807 T30/1700Z T11/1712Z FS30144



MET'MAP, la Météo Aéronautique d'un coup d'oeil ! - Copyright ORBIFLY Décembre 2007 - Disclaimer

ORBIFLY MET'MAP TEAM :

Programmation & Développement : Alexandra Zaïnal
Conception & Développement : Baudouin d'Aumeries
Co-Programmation & Développement : Marc-Olivier Méhu
Soutien technique & logistique : Manuel Goepfert

Contact : metmap@orbifly.com




SOURCES & CREDITS :

   NOAA       Earth
Advisory